National Weather Service Raw Text Product

Displaying AFOS PIL: TAFOTM Received: 2018-07-12 11:20 UTC


107 
FTUS43 KDMX 121120
TAFOTM
TAF
KOTM 121120Z 1212/1312 17008KT P6SM SKC=